• pl
  • eng

Awiacja
Click on the bold red name to decode a message. 07:38 16.12.2017

METAR EPBY 160630Z 28008KT 2600 BR OVC002 M00/M01 Q1001 R26/29//95 =

METAR EPGD 160630Z 24005KT 8000 SCT021 BKN049 00/M01 Q0999 =

METAR EPKK 160630Z 24002KT 8000 BKN036 M01/M03 Q1001 =

METAR EPKT 160630Z 15002KT 5000 BR NSC M04/M05 Q1001 =

METAR EPLB 160630Z 32004KT 8000 BKN008 OVC019 02/01 Q1000 =

METAR EPLL 160630Z 26007KT 9000 FEW008 OVC011 00/M01 Q1001 =

METAR EPMO 160630Z 29004KT 1700 BR OVC003 00/00 Q1001 =

METAR EPPO 160630Z 27004KT 5000 BR OVC011 00/M00 Q1002 R10/29//95 =

METAR EPRA 160630Z 35004KT 320V020 3000 BR BKN003 OVC010 01/01 Q1001
=

METAR EPRZ 160630Z 27004KT 2000 SN BR BKN003 OVC012 00/M00 Q1000 =

METAR EPSC 160630Z 18004KT 150V220 5000 BR BKN010 OVC013 00/M00 Q1001
R13/25//95 =

METAR EPSY 160630Z NIL=

METAR EPWA 160630Z 32007KT 6000 OVC004 01/01 Q1001 TEMPO 3000 BR=

METAR EPWR 160630Z 30005KT 5000 BR FEW044 M05/M05 Q1003 =

METAR EPZG 160630Z 21003KT 1600 BR OVC034 01/00 Q1003 =
Awiacja.imgw.pl jest pogodowym serwisem informacyjnym
Instytutu Meteorologii i Gospodarki Wodnej Państwowego Instytutu Badawczego.
Copyright IMGW PIB 2009-2011© Wszelkie prawa zastrzeżone.